createdAt,value
2023-01-05T00:00:25.315Z,47.00
2023-01-05T00:05:29.463Z,49.00
2023-01-05T00:10:52.332Z,42.75
2023-01-05T00:16:16.343Z,43.50
2023-01-05T00:21:40.006Z,44.25
2023-01-05T00:26:45.008Z,87.00
2023-01-05T00:31:49.083Z,49.67
2023-01-05T00:36:53.240Z,51.67
2023-01-05T00:41:58.132Z,54.33
2023-01-05T00:47:02.761Z,55.33
2023-01-05T00:52:08.091Z,60.75
2023-01-05T00:57:16.682Z,59.33
2023-01-05T01:02:21.581Z,42.25
2023-01-05T01:07:27.428Z,55.75
2023-01-05T01:12:32.190Z,69.33
2023-01-05T01:17:37.184Z,59.00
2023-01-05T01:22:41.807Z,47.50
2023-01-05T01:27:45.894Z,52.50
2023-01-05T01:32:50.535Z,49.25
2023-01-05T01:37:55.098Z,43.00
2023-01-05T01:43:00.726Z,45.75
2023-01-05T01:48:05.929Z,48.50
2023-01-05T01:53:16.243Z,48.67
2023-01-05T01:58:19.955Z,49.25
2023-01-05T02:03:23.569Z,46.25
2023-01-05T02:08:33.614Z,46.00
2023-01-05T02:13:41.585Z,48.00
2023-01-05T02:18:46.321Z,50.00
2023-01-05T02:24:02.836Z,47.67
2023-01-05T02:29:06.618Z,47.33
2023-01-05T02:34:35.411Z,44.00
2023-01-05T02:39:48.507Z,45.75
2023-01-05T02:50:20.733Z,45.00
2023-01-05T02:55:37.894Z,50.00
2023-01-05T03:01:07.434Z,50.00
2023-01-05T03:06:25.286Z,46.00
2023-01-05T03:12:03.681Z,42.00
2023-01-05T03:17:08.966Z,42.75
2023-01-05T03:22:43.820Z,40.00
2023-01-05T03:28:09.568Z,43.00
2023-01-05T03:33:58.395Z,48.67
2023-01-05T03:39:07.542Z,45.50
2023-01-05T03:44:13.283Z,39.00
2023-01-05T03:49:18.988Z,44.00
2023-01-05T03:54:26.397Z,45.50
2023-01-05T03:59:31.720Z,46.25
2023-01-05T04:04:38.045Z,47.33
2023-01-05T04:09:46.646Z,46.25
2023-01-05T04:14:51.981Z,47.33
2023-01-05T04:19:58.320Z,45.67
2023-01-05T04:25:04.779Z,47.00
2023-01-05T04:30:10.144Z,47.00
2023-01-05T04:35:16.147Z,46.50
2023-01-05T04:40:22.799Z,45.67
2023-01-05T04:45:31.247Z,50.00
2023-01-05T04:51:05.503Z,50.00
2023-01-05T04:56:14.082Z,55.00
2023-01-05T05:01:22.065Z,44.00
2023-01-05T05:06:30.724Z,50.00
2023-01-05T05:11:38.195Z,49.50
2023-01-05T05:16:42.922Z,50.00
2023-01-05T05:21:48.433Z,52.25
2023-01-05T05:26:53.838Z,50.00
2023-01-05T05:31:58.891Z,50.00
2023-01-05T05:37:04.675Z,48.67
2023-01-05T05:42:09.391Z,54.75
2023-01-05T05:47:13.965Z,50.00
2023-01-05T05:52:19.135Z,50.50
2023-01-05T05:57:25.094Z,49.75
2023-01-05T06:02:30.608Z,48.75
2023-01-05T06:07:36.166Z,49.75
2023-01-05T06:12:40.731Z,49.50
2023-01-05T06:17:49.877Z,46.50
2023-01-05T06:22:56.057Z,48.00
2023-01-05T06:28:00.952Z,47.25
2023-01-05T06:33:09.378Z,57.67
2023-01-05T06:38:17.398Z,48.50
2023-01-05T06:43:22.982Z,49.75
2023-01-05T06:48:28.243Z,48.50
2023-01-05T06:53:33.579Z,50.00
2023-01-05T06:58:38.857Z,45.50
2023-01-05T07:03:43.891Z,49.50
2023-01-05T07:08:49.121Z,50.00
2023-01-05T07:13:54.460Z,49.25
2023-01-05T07:18:59.701Z,51.25
2023-01-05T07:24:06.029Z,51.33
2023-01-05T07:29:11.406Z,50.00
2023-01-05T07:34:16.688Z,48.00
2023-01-05T07:39:22.105Z,49.50
2023-01-05T07:44:27.594Z,55.67
2023-01-05T07:49:36.995Z,50.00
2023-01-05T07:54:41.301Z,49.50
2023-01-05T07:59:46.210Z,50.00
2023-01-05T08:04:52.659Z,49.33
2023-01-05T08:10:16.037Z,53.33
2023-01-05T08:15:20.981Z,51.33
2023-01-05T08:20:27.715Z,50.50
2023-01-05T08:25:34.348Z,50.67
2023-01-05T08:30:39.933Z,56.00
2023-01-05T08:35:46.950Z,53.67
2023-01-05T08:40:52.919Z,49.25
2023-01-05T08:45:57.984Z,54.50
2023-01-05T08:51:08.717Z,70.25
2023-01-05T08:56:14.298Z,60.25
2023-01-05T09:01:22.402Z,95.00
2023-01-05T09:06:26.825Z,175.25
2023-01-05T09:22:02.600Z,62.75
2023-01-05T09:27:09.866Z,187.25
2023-01-05T09:32:14.729Z,148.50
2023-01-05T09:37:19.391Z,165.00
2023-01-05T09:42:28.800Z,188.00
2023-01-05T09:47:43.378Z,97.00
2023-01-05T09:52:47.822Z,112.00
2023-01-05T09:58:08.893Z,67.25
2023-01-05T10:04:01.996Z,82.25
2023-01-05T10:08:53.261Z,84.67
2023-01-05T10:14:09.265Z,69.75
2023-01-05T10:19:20.026Z,98.00
2023-01-05T10:24:44.094Z,106.50
2023-01-05T10:29:50.705Z,95.00
2023-01-05T10:40:05.569Z,107.00
2023-01-05T10:45:17.256Z,88.75
2023-01-05T10:50:37.513Z,82.00
2023-01-05T10:56:06.935Z,86.00
2023-01-05T11:01:30.908Z,85.00
2023-01-05T11:06:34.908Z,88.00
2023-01-05T11:11:39.955Z,50.50
2023-01-05T11:16:53.139Z,54.50
2023-01-05T11:22:01.876Z,60.50
2023-01-05T11:27:26.685Z,69.67
2023-01-05T11:32:31.588Z,71.33
2023-01-05T11:37:35.534Z,61.33
2023-01-05T11:42:44.862Z,54.67
2023-01-05T11:47:50.878Z,50.67
2023-01-05T11:52:58.480Z,49.67
2023-01-05T11:58:24.463Z,49.50
2023-01-05T12:04:07.194Z,49.75
2023-01-05T12:09:36.449Z,51.00
2023-01-05T12:15:08.435Z,54.00
2023-01-05T12:20:22.317Z,57.75
2023-01-05T12:25:37.244Z,46.25
2023-01-05T12:33:19.382Z,71.33
2023-01-05T12:36:45.103Z,64.25
2023-01-05T12:41:52.766Z,64.67
2023-01-05T12:47:25.077Z,67.00
2023-01-05T12:52:43.940Z,52.00
2023-01-05T12:57:53.942Z,55.00
2023-01-05T13:03:15.375Z,57.75
2023-01-05T13:08:27.539Z,50.50
2023-01-05T13:13:31.701Z,52.25
2023-01-05T13:18:43.342Z,56.00
2023-01-05T13:23:58.520Z,47.00
2023-01-05T13:29:06.117Z,51.00
2023-01-05T13:34:16.105Z,52.67
2023-01-05T13:39:27.693Z,63.67
2023-01-05T13:44:50.940Z,56.25
2023-01-05T13:50:18.227Z,54.33
2023-01-05T13:55:26.176Z,58.00
2023-01-05T14:00:44.479Z,56.00
2023-01-05T14:06:02.750Z,54.67
2023-01-05T14:11:22.042Z,51.25
2023-01-05T14:16:46.317Z,53.75
2023-01-05T14:27:23.199Z,55.00
2023-01-05T14:32:28.219Z,52.25
2023-01-05T14:37:53.900Z,63.75
2023-01-05T14:43:01.218Z,59.75
2023-01-05T14:48:26.458Z,55.50
2023-01-05T14:53:52.989Z,52.25
2023-01-05T14:59:01.469Z,56.00
2023-01-05T15:04:09.827Z,52.00
2023-01-05T15:09:24.357Z,53.00
2023-01-05T15:14:53.988Z,62.00
2023-01-05T15:20:15.242Z,58.50
2023-01-05T15:25:24.790Z,60.00
2023-01-05T15:30:48.389Z,54.25
2023-01-05T15:35:58.406Z,43.67
2023-01-05T15:41:14.639Z,56.67
2023-01-05T15:46:24.611Z,54.00
2023-01-05T15:51:32.396Z,53.00
2023-01-05T15:56:37.181Z,50.50
2023-01-05T16:01:42.232Z,53.75
2023-01-05T16:06:50.147Z,57.25
2023-01-05T16:11:58.722Z,57.33
2023-01-05T16:17:13.482Z,61.50
2023-01-05T16:22:20.181Z,60.00
2023-01-05T16:27:25.306Z,58.33
2023-01-05T16:32:36.027Z,55.67
2023-01-05T16:37:42.587Z,63.00
2023-01-05T16:42:49.440Z,66.67
2023-01-05T16:47:55.199Z,61.25
2023-01-05T16:58:31.317Z,48.50
2023-01-05T17:03:36.390Z,54.00
2023-01-05T17:08:42.351Z,58.50
2023-01-05T17:13:51.574Z,59.67
2023-01-05T17:18:57.560Z,59.75
2023-01-05T17:24:05.090Z,58.00
2023-01-05T17:29:18.815Z,63.67
2023-01-05T17:34:24.819Z,67.75
2023-01-05T17:44:39.840Z,55.75
2023-01-05T17:49:45.104Z,57.67
2023-01-05T17:54:50.568Z,65.67
2023-01-05T17:59:55.688Z,58.67
2023-01-05T18:04:59.784Z,63.67
2023-01-05T18:10:04.240Z,57.67
2023-01-05T18:15:09.673Z,56.00
2023-01-05T18:20:17.706Z,52.25
2023-01-05T18:25:25.138Z,52.33
2023-01-05T18:30:30.416Z,58.00
2023-01-05T18:35:37.257Z,61.25
2023-01-05T18:40:47.919Z,57.75
2023-01-05T18:45:58.571Z,58.75
2023-01-05T18:51:02.060Z,66.00
2023-01-05T18:56:05.937Z,64.25
2023-01-05T19:01:15.773Z,66.75
2023-01-05T19:06:21.326Z,61.75
2023-01-05T19:11:26.657Z,69.67
2023-01-05T19:16:31.692Z,54.67
2023-01-05T19:21:36.795Z,50.00
2023-01-05T19:26:41.364Z,54.50
2023-01-05T19:31:46.388Z,54.00
2023-01-05T19:36:49.964Z,62.00
2023-01-05T19:41:54.093Z,62.25
2023-01-05T19:46:58.678Z,54.75
2023-01-05T19:52:03.278Z,58.00
2023-01-05T19:57:07.838Z,57.25
2023-01-05T20:02:11.312Z,63.00
2023-01-05T20:07:16.039Z,57.00
2023-01-05T20:12:20.946Z,54.33
2023-01-05T20:17:25.667Z,58.00
2023-01-05T20:22:30.354Z,67.00
2023-01-05T20:27:35.724Z,62.25
2023-01-05T20:37:44.688Z,61.67
2023-01-05T20:42:48.741Z,65.25
2023-01-05T20:47:53.389Z,61.50
2023-01-05T20:52:59.136Z,69.67
2023-01-05T20:58:03.690Z,71.00
2023-01-05T21:03:08.865Z,62.50
2023-01-05T21:08:13.136Z,67.75
2023-01-05T21:13:30.557Z,55.25
2023-01-05T21:18:36.984Z,64.50
2023-01-05T21:23:42.383Z,65.67
2023-01-05T21:28:47.910Z,66.75
2023-01-05T21:33:53.253Z,56.00
2023-01-05T21:39:03.838Z,52.75
2023-01-05T21:44:11.599Z,64.00
2023-01-05T21:49:16.380Z,59.33
2023-01-05T21:54:39.565Z,55.25
2023-01-05T21:59:44.949Z,54.50
2023-01-05T22:04:49.726Z,49.33
2023-01-05T22:09:54.374Z,50.00
2023-01-05T22:14:59.519Z,66.25
2023-01-05T22:20:05.152Z,77.67
2023-01-05T22:25:11.140Z,78.25
2023-01-05T22:30:14.717Z,81.33
2023-01-05T22:35:20.074Z,61.00
2023-01-05T22:45:30.607Z,58.50
2023-01-05T22:50:35.348Z,58.75
2023-01-05T22:55:39.379Z,59.67
2023-01-05T23:00:43.486Z,52.00
2023-01-05T23:05:48.178Z,53.00
2023-01-05T23:10:52.700Z,61.25
2023-01-05T23:15:57.455Z,61.00
2023-01-05T23:21:07.580Z,65.00
2023-01-05T23:26:15.525Z,61.00
2023-01-05T23:31:20.393Z,56.00
2023-01-05T23:36:26.112Z,63.00
2023-01-05T23:41:30.783Z,53.75
2023-01-05T23:46:35.189Z,62.67
2023-01-05T23:51:38.685Z,61.50
2023-01-05T23:56:43.218Z,61.00
